No particular awareness of the weather is required.    There are no Weather-warnings


Meteo18 Weather Cam more information Meteo18 Weather Cam


Thunder radar more information blitzortung!


Rain radar more information rain snow radar


Visit our other weather sites:

Template documentation
and downloads

And another site



Weather Underground History page Text

Daily Summary for January 13, 2017 Units:  Metric    English   Both
« Previous Day
Next Day »
Daily Weekly Monthly Yearly Custom
  High: Low: Average:
Temperature: 5.9 °C 0.4 °C 2.6 °C
Dew Point: 2.0 °C -1.0 °C 0.2 °C
Humidity: 96 % 74 % 84 %
Wind Speed: 38.6 km/h 0.0 km/h 12.7 km/h
Wind Gust: 59.5 km/h - -
Wind:- - West
Pressure: 1017.5 hPa 1006.3 hPa -
Precipitation: 0.8 mm    
Historical Graphs
 
 
Tabular Data for January 13, 2017
Time Temperature Dew Point Pressure Wind Wind Speed Wind Gust Humidity Rainfall Rate (Hourly)
00:02 5.9 °C 2.0 °C 1006.3 hPa WNW 35.4 km/h 51.5 km/h 76 % 0.0 mm
00:12 5.8 °C 1.9 °C 1006.7 hPa West 22.5 km/h 48.3 km/h 76 % 0.0 mm
00:22 5.6 °C 1.7 °C 1006.7 hPa West 30.6 km/h 41.8 km/h 76 % 0.0 mm
00:27 5.4 °C 1.5 °C 1006.7 hPa West 16.1 km/h 46.7 km/h 76 % 0.0 mm
00:32 5.3 °C 1.2 °C 1007.0 hPa WNW 16.1 km/h 46.7 km/h 75 % 0.0 mm
00:42 5.1 °C 1.4 °C 1007.3 hPa West 16.1 km/h 53.1 km/h 77 % 0.0 mm
00:52 4.9 °C 1.0 °C 1007.7 hPa WNW 17.7 km/h 59.5 km/h 76 % 0.0 mm
01:02 4.7 °C 0.5 °C 1008.0 hPa West 16.1 km/h 45.1 km/h 74 % 0.0 mm
01:12 4.4 °C 0.4 °C 1008.0 hPa West 22.5 km/h 51.5 km/h 75 % 0.0 mm
01:22 4.3 °C 0.6 °C 1008.4 hPa WNW 19.3 km/h 37.0 km/h 77 % 0.0 mm
01:27 4.3 °C 0.8 °C 1008.4 hPa WSW 14.5 km/h 37.0 km/h 78 % 0.0 mm
01:37 3.9 °C 1.3 °C 1008.4 hPa WNW 12.9 km/h 33.8 km/h 83 % 0.0 mm
01:42 3.8 °C 1.2 °C 1008.4 hPa West 12.9 km/h 33.8 km/h 83 % 0.0 mm
01:52 3.7 °C 1.2 °C 1008.4 hPa West 27.4 km/h 43.4 km/h 84 % 0.0 mm
01:57 3.7 °C 1.2 °C 1008.7 hPa West 12.9 km/h 43.4 km/h 84 % 0.0 mm
02:02 3.7 °C 1.2 °C 1008.7 hPa West 17.7 km/h 43.4 km/h 84 % 0.0 mm
02:12 3.7 °C 0.9 °C 1009.0 hPa WSW 14.5 km/h 32.2 km/h 82 % 0.0 mm
02:17 3.7 °C 0.9 °C 1008.7 hPa WSW 16.1 km/h 38.6 km/h 82 % 0.0 mm
02:22 3.7 °C 0.9 °C 1009.0 hPa WNW 12.9 km/h 38.6 km/h 82 % 0.0 mm
02:32 3.5 °C 0.7 °C 1009.4 hPa West 19.3 km/h 33.8 km/h 82 % 0.0 mm
02:37 3.4 °C 0.6 °C 1009.4 hPa WNW 22.5 km/h 33.8 km/h 82 % 0.0 mm
02:42 3.4 °C 0.4 °C 1009.4 hPa West 14.5 km/h 30.6 km/h 81 % 0.0 mm
02:52 3.3 °C 0.5 °C 1009.4 hPa West 29.0 km/h 37.0 km/h 82 % 0.0 mm
02:57 3.3 °C 0.5 °C 1009.4 hPa West 9.7 km/h 37.0 km/h 82 % 0.0 mm
03:02 3.2 °C 0.4 °C 1009.4 hPa West 9.7 km/h 33.8 km/h 82 % 0.0 mm
03:07 3.2 °C 0.6 °C 1009.4 hPa West 16.1 km/h 33.8 km/h 83 % 0.0 mm
03:12 3.2 °C 0.6 °C 1009.4 hPa West 19.3 km/h 27.4 km/h 83 % 0.0 mm
03:17 3.2 °C 0.6 °C 1009.4 hPa WSW 14.5 km/h 27.4 km/h 83 % 0.0 mm
03:22 3.2 °C 0.4 °C 1009.4 hPa WSW 14.5 km/h 33.8 km/h 82 % 0.0 mm
03:27 3.1 °C 0.3 °C 1009.4 hPa West 20.9 km/h 33.8 km/h 82 % 0.0 mm
03:32 3.1 °C 0.3 °C 1009.7 hPa West 20.9 km/h 33.8 km/h 82 % 0.0 mm
03:37 3.1 °C 0.2 °C 1009.7 hPa WSW 11.3 km/h 35.4 km/h 81 % 0.0 mm
03:42 2.9 °C -0.2 °C 1009.7 hPa West 20.9 km/h 35.4 km/h 80 % 0.0 mm
03:47 2.9 °C 0.0 °C 1010.0 hPa WNW 11.3 km/h 35.4 km/h 81 % 0.0 mm
03:52 2.7 °C -0.2 °C 1010.0 hPa WSW 17.7 km/h 29.0 km/h 81 % 0.0 mm
04:02 2.6 °C -0.2 °C 1010.0 hPa WNW 14.5 km/h 29.0 km/h 82 % 0.0 mm
04:12 2.6 °C 0.0 °C 1010.0 hPa WNW 27.4 km/h 30.6 km/h 83 % 0.0 mm
04:17 2.4 °C -0.2 °C 1010.0 hPa WNW 12.9 km/h 30.6 km/h 83 % 0.0 mm
04:22 2.3 °C -0.1 °C 1010.0 hPa West 25.7 km/h 30.6 km/h 84 % 0.0 mm
04:32 2.3 °C 0.0 °C 1010.0 hPa WSW 9.7 km/h 35.4 km/h 85 % 0.0 mm
04:37 2.2 °C -0.1 °C 1010.0 hPa West 38.6 km/h 38.6 km/h 85 % 0.0 mm
04:42 2.2 °C 0.1 °C 1010.0 hPa West 9.7 km/h 41.8 km/h 86 % 0.0 mm
04:47 2.1 °C -0.2 °C 1009.7 hPa WNW 11.3 km/h 41.8 km/h 85 % 0.0 mm
04:52 2.0 °C -0.3 °C 1009.7 hPa West 12.9 km/h 41.8 km/h 85 % 0.0 mm
04:57 2.0 °C -0.3 °C 1009.7 hPa WSW 27.4 km/h 41.8 km/h 85 % 0.0 mm
05:02 1.9 °C -0.4 °C 1009.7 hPa West 16.1 km/h 33.8 km/h 85 % 0.0 mm
05:07 1.9 °C -0.4 °C 1010.0 hPa West 19.3 km/h 33.8 km/h 85 % 0.0 mm
05:12 1.9 °C -0.2 °C 1010.0 hPa WNW 16.1 km/h 30.6 km/h 86 % 0.0 mm
05:17 1.9 °C -0.2 °C 1010.0 hPa West 6.4 km/h 30.6 km/h 86 % 0.0 mm
05:22 2.0 °C -0.1 °C 1010.0 hPa WNW 17.7 km/h 30.6 km/h 86 % 0.0 mm
05:32 1.9 °C -0.2 °C 1010.0 hPa WNW 17.7 km/h 32.2 km/h 86 % 0.0 mm
05:37 1.9 °C -0.4 °C 1010.0 hPa WNW 9.7 km/h 32.2 km/h 85 % 0.0 mm
05:42 1.9 °C -0.4 °C 1010.0 hPa West 12.9 km/h 29.0 km/h 85 % 0.0 mm
05:47 1.9 °C -0.2 °C 1010.4 hPa West 12.9 km/h 29.0 km/h 86 % 0.0 mm
05:52 1.9 °C -0.4 °C 1010.4 hPa WSW 16.1 km/h 29.0 km/h 85 % 0.0 mm
05:57 1.9 °C -0.4 °C 1010.4 hPa West 8.0 km/h 29.0 km/h 85 % 0.0 mm
06:02 1.9 °C -0.4 °C 1010.4 hPa West 17.7 km/h 29.0 km/h 85 % 0.0 mm
06:07 2.0 °C -0.3 °C 1010.7 hPa WSW 19.3 km/h 30.6 km/h 85 % 0.0 mm
06:12 2.0 °C -0.3 °C 1010.7 hPa West 12.9 km/h 30.6 km/h 85 % 0.0 mm
06:17 1.9 °C -0.4 °C 1010.7 hPa West 12.9 km/h 33.8 km/h 85 % 0.0 mm
06:22 1.8 °C -0.3 °C 1010.7 hPa WSW 19.3 km/h 33.8 km/h 86 % 0.0 mm
06:27 1.8 °C -0.3 °C 1010.7 hPa WSW 12.9 km/h 33.8 km/h 86 % 0.0 mm
06:32 1.8 °C -0.3 °C 1010.7 hPa West 19.3 km/h 22.5 km/h 86 % 0.0 mm
06:37 1.8 °C -0.1 °C 1010.7 hPa West 11.3 km/h 22.5 km/h 87 % 0.0 mm
06:42 1.8 °C -0.1 °C 1010.7 hPa WNW 9.7 km/h 22.5 km/h 87 % 0.0 mm
06:47 1.8 °C -0.1 °C 1010.7 hPa West 24.1 km/h 24.1 km/h 87 % 0.0 mm
06:57 1.7 °C -0.2 °C 1010.7 hPa WSW 14.5 km/h 29.0 km/h 87 % 0.0 mm
07:02 1.6 °C -0.3 °C 1010.7 hPa WSW 17.7 km/h 29.0 km/h 87 % 0.0 mm
07:12 1.6 °C -0.2 °C 1010.7 hPa West 11.3 km/h 24.1 km/h 88 % 0.0 mm
07:17 1.5 °C -0.3 °C 1011.1 hPa SW 19.3 km/h 24.1 km/h 88 % 0.0 mm
07:22 1.5 °C -0.3 °C 1011.1 hPa West 8.0 km/h 24.1 km/h 88 % 0.0 mm
07:27 1.4 °C -0.2 °C 1011.1 hPa WSW 17.7 km/h 24.1 km/h 89 % 0.0 mm
07:32 1.3 °C -0.2 °C 1011.1 hPa West 14.5 km/h 24.1 km/h 90 % 0.0 mm
07:37 1.2 °C -0.1 °C 1011.1 hPa WSW 14.5 km/h 24.1 km/h 91 % 0.0 mm
07:42 1.1 °C -0.2 °C 1011.1 hPa WSW 11.3 km/h 24.1 km/h 91 % 0.0 mm
07:47 1.1 °C -0.1 °C 1011.1 hPa West 17.7 km/h 20.9 km/h 92 % 0.0 mm
07:52 1.1 °C -0.1 °C 1011.1 hPa WSW 9.7 km/h 19.3 km/h 92 % 0.0 mm
07:57 1.2 °C -0.1 °C 1011.1 hPa WSW 9.7 km/h 20.9 km/h 91 % 0.0 mm
08:02 1.2 °C -0.1 °C 1011.1 hPa WSW 11.3 km/h 20.9 km/h 91 % 0.0 mm
08:07 1.2 °C -0.1 °C 1011.1 hPa WSW 6.4 km/h 20.9 km/h 91 % 0.0 mm
08:12 1.2 °C -0.1 °C 1011.1 hPa West 12.9 km/h 22.5 km/h 91 % 0.0 mm
08:17 1.1 °C -0.1 °C 1011.1 hPa WSW 9.7 km/h 22.5 km/h 92 % 0.0 mm
08:22 0.8 °C -0.2 °C 1011.1 hPa WSW 6.4 km/h 22.5 km/h 93 % 0.0 mm
08:32 0.6 °C -0.3 °C 1011.1 hPa SSW 1.6 km/h 20.9 km/h 94 % 0.0 mm
08:37 0.5 °C -0.2 °C 1011.1 hPa West 4.8 km/h 19.3 km/h 95 % 0.0 mm
08:42 0.4 °C -0.3 °C 1011.1 hPa WSW 8.0 km/h 16.1 km/h 95 % 0.0 mm
08:52 0.4 °C -0.3 °C 1011.1 hPa WSW 9.7 km/h 16.1 km/h 95 % 0.0 mm
08:57 0.4 °C -0.3 °C 1011.1 hPa WSW 4.8 km/h 19.3 km/h 95 % 0.0 mm
09:02 0.4 °C -0.2 °C 1011.1 hPa West 4.8 km/h 19.3 km/h 96 % 0.0 mm
09:07 0.4 °C -0.2 °C 1011.1 hPa West 8.0 km/h 16.1 km/h 96 % 0.0 mm
09:12 0.4 °C -0.2 °C 1011.4 hPa West 6.4 km/h 17.7 km/h 96 % 0.0 mm
09:17 0.4 °C -0.2 °C 1011.4 hPa WSW 8.0 km/h 17.7 km/h 96 % 0.0 mm
09:22 0.5 °C -0.1 °C 1011.4 hPa West 9.7 km/h 17.7 km/h 96 % 0.0 mm
09:27 0.6 °C -0.1 °C 1011.4 hPa West 9.7 km/h 17.7 km/h 95 % 0.0 mm
09:32 0.6 °C -0.1 °C 1011.4 hPa WNW 9.7 km/h 17.7 km/h 95 % 0.0 mm
09:37 0.6 °C -0.1 °C 1011.4 hPa SW 3.2 km/h 16.1 km/h 95 % 0.0 mm
09:42 0.7 °C 0.0 °C 1011.7 hPa West 6.4 km/h 16.1 km/h 95 % 0.0 mm
09:47 0.7 °C 0.0 °C 1011.7 hPa WSW 9.7 km/h 16.1 km/h 95 % 0.0 mm
09:52 0.7 °C 0.0 °C 1011.7 hPa WNW 3.2 km/h 14.5 km/h 95 % 0.0 mm
09:57 0.8 °C 0.1 °C 1011.7 hPa SW 1.6 km/h 14.5 km/h 95 % 0.0 mm
10:02 0.8 °C -0.1 °C 1011.7 hPa West 3.2 km/h 11.3 km/h 94 % 0.0 mm
10:12 0.9 °C 0.0 °C 1011.7 hPa Calm   9.7 km/h 94 % 0.0 mm
10:17 1.0 °C 0.1 °C 1011.7 hPa Calm   9.7 km/h 94 % 0.0 mm
10:22 1.1 °C 0.2 °C 1011.7 hPa SW 8.0 km/h 8.0 km/h 94 % 0.0 mm
10:32 1.2 °C 0.2 °C 1011.7 hPa WNW 11.3 km/h 14.5 km/h 93 % 0.0 mm
10:37 1.3 °C 0.3 °C 1011.7 hPa WSW 3.2 km/h 14.5 km/h 93 % 0.3 mm
10:42 1.3 °C 0.3 °C 1011.7 hPa West 9.7 km/h 19.3 km/h 93 % 0.3 mm
10:52 1.3 °C 0.3 °C 1011.7 hPa WNW 4.8 km/h 16.1 km/h 93 % 0.3 mm
10:57 1.3 °C 0.3 °C 1011.7 hPa West 14.5 km/h 16.1 km/h 93 % 0.3 mm
11:02 1.3 °C 0.3 °C 1011.7 hPa WNW 8.0 km/h 22.5 km/h 93 % 0.3 mm
11:07 1.4 °C 0.4 °C 1011.7 hPa WSW 6.4 km/h 27.4 km/h 93 % 0.5 mm
11:12 1.4 °C 0.4 °C 1012.1 hPa WNW 4.8 km/h 27.4 km/h 93 % 0.5 mm
11:17 1.4 °C 0.4 °C 1012.1 hPa WNW 12.9 km/h 27.4 km/h 93 % 0.5 mm
11:22 1.5 °C 0.3 °C 1012.1 hPa West 6.4 km/h 19.3 km/h 92 % 0.5 mm
11:32 1.6 °C 0.4 °C 1012.4 hPa WSW 8.0 km/h 19.3 km/h 92 % 0.3 mm
11:42 1.7 °C 0.5 °C 1012.4 hPa WNW 4.8 km/h 25.7 km/h 92 % 0.3 mm
11:52 1.7 °C 0.5 °C 1012.1 hPa NW 9.7 km/h 20.9 km/h 92 % 0.3 mm
11:57 1.8 °C 0.6 °C 1012.4 hPa WNW 14.5 km/h 20.9 km/h 92 % 0.3 mm
12:02 1.9 °C 0.7 °C 1012.4 hPa NW 6.4 km/h 20.9 km/h 92 % 0.0 mm
12:12 2.1 °C 0.9 °C 1012.4 hPa NW 3.2 km/h 22.5 km/h 92 % 0.0 mm
12:17 2.1 °C 0.8 °C 1012.4 hPa WNW 16.1 km/h 22.5 km/h 91 % 0.0 mm
12:22 2.1 °C 0.9 °C 1012.4 hPa WNW 16.1 km/h 22.5 km/h 92 % 0.0 mm
12:32 2.1 °C 0.9 °C 1012.8 hPa NNW 8.0 km/h 24.1 km/h 92 % 0.0 mm
12:37 2.2 °C 1.0 °C 1012.8 hPa WNW 16.1 km/h 29.0 km/h 92 % 0.0 mm
12:42 2.2 °C 0.9 °C 1012.8 hPa WNW 11.3 km/h 29.0 km/h 91 % 0.0 mm
12:47 2.3 °C 1.0 °C 1012.8 hPa WNW 16.1 km/h 29.0 km/h 91 % 0.0 mm
12:57 2.4 °C 0.9 °C 1012.8 hPa NW 16.1 km/h 30.6 km/h 90 % 0.0 mm
13:02 2.5 °C 1.0 °C 1012.8 hPa North 9.7 km/h 30.6 km/h 90 % 0.0 mm
13:07 2.5 °C 0.9 °C 1012.8 hPa West 17.7 km/h 27.4 km/h 89 % 0.0 mm
13:12 2.7 °C 1.1 °C 1012.8 hPa SW 22.5 km/h 27.4 km/h 89 % 0.0 mm
13:17 3.0 °C 1.4 °C 1012.8 hPa NW 14.5 km/h 27.4 km/h 89 % 0.0 mm
13:22 3.3 °C 1.7 °C 1012.8 hPa NW 11.3 km/h 22.5 km/h 89 % 0.0 mm
13:27 3.4 °C 1.3 °C 1012.8 hPa NW 25.7 km/h 25.7 km/h 86 % 0.0 mm
13:32 3.6 °C 1.3 °C 1012.8 hPa NW 8.0 km/h 30.6 km/h 85 % 0.0 mm
13:37 3.8 °C 1.5 °C 1012.8 hPa West 14.5 km/h 30.6 km/h 85 % 0.0 mm
13:42 3.8 °C 1.2 °C 1012.8 hPa NNW 14.5 km/h 33.8 km/h 83 % 0.0 mm
13:52 3.7 °C 1.1 °C 1012.8 hPa NW 11.3 km/h 35.4 km/h 83 % 0.0 mm
13:57 3.8 °C 0.8 °C 1012.8 hPa NW 12.9 km/h 35.4 km/h 81 % 0.0 mm
14:02 3.8 °C 0.7 °C 1012.8 hPa WNW 14.5 km/h 37.0 km/h 80 % 0.0 mm
14:07 4.0 °C 0.9 °C 1013.1 hPa NW 4.8 km/h 37.0 km/h 80 % 0.0 mm
14:12 4.1 °C 0.6 °C 1013.1 hPa WNW 17.7 km/h 37.0 km/h 78 % 0.0 mm
14:17 4.1 °C 1.0 °C 1013.1 hPa WNW 16.1 km/h 33.8 km/h 80 % 0.0 mm
14:22 4.2 °C 0.7 °C 1013.1 hPa NNE 9.7 km/h 27.4 km/h 78 % 0.0 mm
14:27 4.1 °C 0.6 °C 1013.4 hPa NNW 22.5 km/h 27.4 km/h 78 % 0.0 mm
14:32 4.2 °C 0.7 °C 1013.4 hPa WNW 32.2 km/h 32.2 km/h 78 % 0.3 mm
14:37 4.1 °C 0.8 °C 1013.4 hPa WNW 8.0 km/h 32.2 km/h 79 % 0.3 mm
14:42 4.2 °C 0.7 °C 1013.4 hPa NNW 14.5 km/h 32.2 km/h 78 % 0.3 mm
14:47 4.2 °C 0.7 °C 1013.4 hPa WNW 12.9 km/h 32.2 km/h 78 % 0.3 mm
14:52 4.1 °C 0.4 °C 1013.8 hPa WNW 11.3 km/h 24.1 km/h 77 % 0.3 mm
14:57 3.3 °C 0.9 °C 1013.8 hPa NW 24.1 km/h 32.2 km/h 84 % 0.3 mm
15:02 2.3 °C 0.8 °C 1013.8 hPa WNW 24.1 km/h 56.3 km/h 90 % 0.3 mm
15:07 2.1 °C 0.8 °C 1014.1 hPa WNW 11.3 km/h 56.3 km/h 91 % 0.3 mm
15:12 2.1 °C 0.8 °C 1013.8 hPa West 16.1 km/h 37.0 km/h 91 % 0.3 mm
15:17 2.1 °C 0.8 °C 1014.1 hPa West 4.8 km/h 29.0 km/h 91 % 0.3 mm
15:22 2.0 °C 0.7 °C 1014.1 hPa West 16.1 km/h 29.0 km/h 91 % 0.3 mm
15:27 1.7 °C 0.5 °C 1014.4 hPa WNW 6.4 km/h 32.2 km/h 92 % 0.5 mm
15:32 1.6 °C 0.4 °C 1014.4 hPa West 9.7 km/h 32.2 km/h 92 % 0.3 mm
15:37 1.6 °C 0.6 °C 1014.4 hPa WNW 8.0 km/h 32.2 km/h 93 % 0.3 mm
15:42 1.9 °C 0.7 °C 1014.4 hPa WNW 6.4 km/h 17.7 km/h 92 % 0.3 mm
15:47 2.3 °C 0.8 °C 1014.4 hPa West 3.2 km/h 19.3 km/h 90 % 0.3 mm
15:52 2.5 °C 0.9 °C 1014.4 hPa WNW 8.0 km/h 19.3 km/h 89 % 0.3 mm
15:57 2.7 °C 0.8 °C 1014.4 hPa WNW 12.9 km/h 19.3 km/h 87 % 0.3 mm
16:07 3.1 °C 0.8 °C 1014.4 hPa West 11.3 km/h 19.3 km/h 85 % 0.3 mm
16:12 3.1 °C 0.7 °C 1014.4 hPa WNW 17.7 km/h 22.5 km/h 84 % 0.3 mm
16:17 3.1 °C 0.5 °C 1014.4 hPa WNW 14.5 km/h 24.1 km/h 83 % 0.3 mm
16:22 3.2 °C 0.4 °C 1014.4 hPa West 9.7 km/h 24.1 km/h 82 % 0.3 mm
16:32 3.2 °C -0.1 °C 1014.8 hPa WNW 19.3 km/h 27.4 km/h 79 % 0.0 mm
16:37 3.3 °C -0.2 °C 1014.8 hPa SW 24.1 km/h 27.4 km/h 78 % 0.0 mm
16:42 3.3 °C -0.2 °C 1014.8 hPa NNW 11.3 km/h 29.0 km/h 78 % 0.0 mm
16:52 3.3 °C -0.3 °C 1014.8 hPa WNW 3.2 km/h 30.6 km/h 77 % 0.0 mm
16:57 3.2 °C -0.4 °C 1014.8 hPa WNW 11.3 km/h 30.6 km/h 77 % 0.0 mm
17:02 3.1 °C -0.4 °C 1015.1 hPa WNW 14.5 km/h 29.0 km/h 78 % 0.0 mm
17:07 3.0 °C -0.5 °C 1014.8 hPa WNW 11.3 km/h 29.0 km/h 78 % 0.0 mm
17:12 2.9 °C -0.6 °C 1015.1 hPa WNW 14.5 km/h 27.4 km/h 78 % 0.0 mm
17:17 2.7 °C -0.6 °C 1014.8 hPa WNW 12.9 km/h 27.4 km/h 79 % 0.0 mm
17:22 2.6 °C -0.5 °C 1014.8 hPa WNW 8.0 km/h 27.4 km/h 80 % 0.0 mm
17:32 2.3 °C -0.6 °C 1014.8 hPa WNW 12.9 km/h 19.3 km/h 81 % 0.0 mm
17:37 2.3 °C -0.6 °C 1014.8 hPa WNW 12.9 km/h 20.9 km/h 81 % 0.0 mm
17:42 2.4 °C -0.5 °C 1014.8 hPa NW 12.9 km/h 24.1 km/h 81 % 0.0 mm
17:52 2.4 °C -0.5 °C 1014.8 hPa WSW 9.7 km/h 29.0 km/h 81 % 0.0 mm
17:57 2.5 °C -0.6 °C 1015.1 hPa WSW 9.7 km/h 29.0 km/h 80 % 0.0 mm
18:02 2.5 °C -0.6 °C 1015.1 hPa West 8.0 km/h 29.0 km/h 80 % 0.0 mm
18:07 2.6 °C -0.7 °C 1015.1 hPa WNW 14.5 km/h 24.1 km/h 79 % 0.0 mm
18:12 2.7 °C -0.6 °C 1015.1 hPa WNW 12.9 km/h 27.4 km/h 79 % 0.0 mm
18:17 2.8 °C -0.7 °C 1015.1 hPa WNW 1.6 km/h 27.4 km/h 78 % 0.0 mm
18:22 2.8 °C -0.7 °C 1015.1 hPa NW 6.4 km/h 27.4 km/h 78 % 0.0 mm
18:27 2.8 °C -0.8 °C 1015.1 hPa NW 12.9 km/h 25.7 km/h 77 % 0.0 mm
18:32 2.9 °C -0.7 °C 1015.1 hPa WNW 14.5 km/h 27.4 km/h 77 % 0.0 mm
18:37 2.9 °C -0.9 °C 1015.1 hPa WNW 11.3 km/h 27.4 km/h 76 % 0.0 mm
18:42 3.0 °C -0.8 °C 1015.1 hPa WNW 12.9 km/h 27.4 km/h 76 % 0.0 mm
18:47 3.1 °C -0.9 °C 1015.1 hPa WSW 19.3 km/h 22.5 km/h 75 % 0.0 mm
18:52 3.2 °C -0.8 °C 1015.1 hPa West 8.0 km/h 25.7 km/h 75 % 0.0 mm
18:57 3.2 °C -1.0 °C 1015.5 hPa WNW 14.5 km/h 25.7 km/h 74 % 0.0 mm
19:02 3.2 °C -1.0 °C 1015.5 hPa West 11.3 km/h 25.7 km/h 74 % 0.0 mm
19:07 3.3 °C -0.9 °C 1015.5 hPa West 9.7 km/h 22.5 km/h 74 % 0.0 mm
19:12 3.3 °C -0.9 °C 1015.5 hPa WSW 16.1 km/h 24.1 km/h 74 % 0.0 mm
19:17 3.4 °C -0.8 °C 1015.5 hPa WNW 11.3 km/h 25.7 km/h 74 % 0.0 mm
19:22 3.4 °C -0.6 °C 1015.5 hPa West 16.1 km/h 33.8 km/h 75 % 0.0 mm
19:27 3.4 °C -0.6 °C 1015.5 hPa West 14.5 km/h 33.8 km/h 75 % 0.0 mm
19:32 3.3 °C -0.5 °C 1015.5 hPa West 19.3 km/h 33.8 km/h 76 % 0.0 mm
19:37 3.3 °C -0.5 °C 1015.5 hPa West 16.1 km/h 33.8 km/h 76 % 0.0 mm
19:42 3.3 °C -0.5 °C 1015.5 hPa WNW 12.9 km/h 33.8 km/h 76 % 0.0 mm
19:47 3.3 °C -0.5 °C 1015.5 hPa West 17.7 km/h 29.0 km/h 76 % 0.0 mm
19:52 3.3 °C -0.5 °C 1015.5 hPa WNW 27.4 km/h 29.0 km/h 76 % 0.0 mm
19:57 3.3 °C -0.3 °C 1015.5 hPa WSW 16.1 km/h 35.4 km/h 77 % 0.0 mm
20:02 3.2 °C -0.3 °C 1015.5 hPa West 20.9 km/h 35.4 km/h 78 % 0.0 mm
20:12 3.0 °C 0.1 °C 1015.8 hPa West 19.3 km/h 32.2 km/h 81 % 0.0 mm
20:17 2.9 °C 0.0 °C 1015.8 hPa West 16.1 km/h 30.6 km/h 81 % 0.0 mm
20:22 2.9 °C 0.0 °C 1015.8 hPa WSW 17.7 km/h 29.0 km/h 81 % 0.0 mm
20:27 2.9 °C 0.0 °C 1015.8 hPa WSW 19.3 km/h 29.0 km/h 81 % 0.0 mm
20:32 2.9 °C 0.1 °C 1015.8 hPa West 11.3 km/h 30.6 km/h 82 % 0.0 mm
20:37 2.8 °C 0.0 °C 1015.8 hPa WNW 11.3 km/h 30.6 km/h 82 % 0.0 mm
20:42 2.8 °C 0.2 °C 1015.8 hPa NNW 12.9 km/h 30.6 km/h 83 % 0.0 mm
20:47 2.7 °C 0.1 °C 1015.8 hPa West 14.5 km/h 30.6 km/h 83 % 0.0 mm
20:52 2.7 °C 0.1 °C 1015.8 hPa West 9.7 km/h 30.6 km/h 83 % 0.0 mm
20:57 2.7 °C 0.1 °C 1015.8 hPa West 14.5 km/h 20.9 km/h 83 % 0.0 mm
21:02 2.8 °C 0.2 °C 1015.8 hPa West 9.7 km/h 20.9 km/h 83 % 0.0 mm
21:12 2.8 °C 0.2 °C 1015.8 hPa WNW 6.4 km/h 20.9 km/h 83 % 0.0 mm
21:17 2.9 °C 0.1 °C 1016.1 hPa WNW 14.5 km/h 24.1 km/h 82 % 0.0 mm
21:22 3.0 °C 0.1 °C 1016.1 hPa WNW 17.7 km/h 24.1 km/h 81 % 0.0 mm
21:32 3.1 °C 0.2 °C 1016.1 hPa WNW 6.4 km/h 24.1 km/h 81 % 0.0 mm
21:37 3.1 °C 0.2 °C 1016.1 hPa West 4.8 km/h 20.9 km/h 81 % 0.0 mm
21:42 3.2 °C 0.1 °C 1016.1 hPa WNW 12.9 km/h 17.7 km/h 80 % 0.0 mm
21:47 3.3 °C 0.0 °C 1016.1 hPa WNW 11.3 km/h 17.7 km/h 79 % 0.0 mm
21:52 3.3 °C 0.2 °C 1016.1 hPa WNW 11.3 km/h 19.3 km/h 80 % 0.0 mm
21:57 3.3 °C 0.2 °C 1016.1 hPa West 8.0 km/h 19.3 km/h 80 % 0.0 mm
22:02 3.3 °C 0.0 °C 1016.1 hPa West 9.7 km/h 19.3 km/h 79 % 0.0 mm
22:12 3.3 °C 0.0 °C 1016.5 hPa WSW 6.4 km/h 16.1 km/h 79 % 0.0 mm
22:17 3.3 °C 0.2 °C 1016.5 hPa WNW 11.3 km/h 17.7 km/h 80 % 0.0 mm
22:22 3.3 °C 0.0 °C 1016.5 hPa WSW 6.4 km/h 17.7 km/h 79 % 0.0 mm
22:32 3.3 °C 0.0 °C 1016.5 hPa West 4.8 km/h 17.7 km/h 79 % 0.0 mm
22:37 3.3 °C 0.2 °C 1016.5 hPa SW 12.9 km/h 17.7 km/h 80 % 0.0 mm
22:42 3.3 °C 0.2 °C 1016.5 hPa WSW 4.8 km/h 17.7 km/h 80 % 0.0 mm
22:47 3.2 °C 0.1 °C 1016.8 hPa West 4.8 km/h 16.1 km/h 80 % 0.0 mm
22:52 3.2 °C 0.1 °C 1016.8 hPa WNW 6.4 km/h 16.1 km/h 80 % 0.0 mm
22:57 3.1 °C 0.2 °C 1016.8 hPa North 1.6 km/h 16.1 km/h 81 % 0.0 mm
23:02 3.1 °C 0.0 °C 1017.2 hPa West 4.8 km/h 11.3 km/h 80 % 0.0 mm
23:12 3.2 °C 0.1 °C 1017.2 hPa WSW 3.2 km/h 9.7 km/h 80 % 0.0 mm
23:17 3.2 °C 0.3 °C 1017.2 hPa West 1.6 km/h 12.9 km/h 81 % 0.0 mm
23:22 3.2 °C 0.1 °C 1017.2 hPa West 3.2 km/h 12.9 km/h 80 % 0.0 mm
23:27 3.2 °C 0.1 °C 1017.2 hPa WSW 8.0 km/h 12.9 km/h 80 % 0.0 mm
23:32 3.2 °C 0.1 °C 1017.2 hPa West 11.3 km/h 16.1 km/h 80 % 0.0 mm
23:37 3.2 °C 0.1 °C 1017.2 hPa West 9.7 km/h 16.1 km/h 80 % 0.0 mm
23:42 3.3 °C 0.2 °C 1017.2 hPa WNW 3.2 km/h 24.1 km/h 80 % 0.0 mm
23:47 3.3 °C 0.2 °C 1017.2 hPa West 12.9 km/h 24.1 km/h 80 % 0.0 mm
23:52 3.3 °C 0.2 °C 1017.5 hPa WNW 8.0 km/h 24.1 km/h 80 % 0.0 mm
23:57 3.2 °C 0.1 °C 1017.5 hPa West 4.8 km/h 24.1 km/h 80 % 0.0 mm
Meteo18
Compliments of Weather Underground - 4 mb

Script developed by  Jim McMurry - jmcmurry@mwt.net Adapted for the template by  Wim van der Kuil - Leuven-Template.eu

You find our weather info also at:

European Weather Network

Weather Underground

Equipment we use:

Weather-station
Davis Vue

Weather-program
Meteohub

Weather-server
Raspberry PI 2 B+

Provider
1 and 1

Davis Vue

Meteohub

Raspberry PI 2 B+

1 and 1